sensor_id;sensor_type;location;lat;lon;timestamp;P1;durP1;ratioP1;P2;durP2;ratioP2
9188;SDS011;34313;50.780;6.084;2023-04-15T00:00:27;4.90;;;2.67;;
9188;SDS011;34313;50.780;6.084;2023-04-15T00:02:53;7.47;;;2.97;;
9188;SDS011;34313;50.780;6.084;2023-04-15T00:05:19;5.63;;;2.43;;
9188;SDS011;34313;50.780;6.084;2023-04-15T00:07:44;4.37;;;2.17;;
9188;SDS011;34313;50.780;6.084;2023-04-15T00:10:11;2.93;;;2.27;;
9188;SDS011;34313;50.780;6.084;2023-04-15T00:12:36;3.90;;;2.40;;
9188;SDS011;34313;50.780;6.084;2023-04-15T00:15:02;4.40;;;2.60;;
9188;SDS011;34313;50.780;6.084;2023-04-15T00:17:28;4.70;;;2.83;;
9188;SDS011;34313;50.780;6.084;2023-04-15T00:19:53;5.47;;;2.53;;
9188;SDS011;34313;50.780;6.084;2023-04-15T00:22:18;9.00;;;2.73;;
9188;SDS011;34313;50.780;6.084;2023-04-15T00:24:44;6.77;;;3.70;;
9188;SDS011;34313;50.780;6.084;2023-04-15T00:27:09;12.10;;;5.60;;
9188;SDS011;34313;50.780;6.084;2023-04-15T00:29:35;3.00;;;2.17;;
9188;SDS011;34313;50.780;6.084;2023-04-15T00:32:01;5.03;;;2.60;;
9188;SDS011;34313;50.780;6.084;2023-04-15T00:34:26;26.90;;;12.23;;
9188;SDS011;34313;50.780;6.084;2023-04-15T00:36:52;9.33;;;2.97;;
9188;SDS011;34313;50.780;6.084;2023-04-15T00:39:18;5.10;;;2.50;;
9188;SDS011;34313;50.780;6.084;2023-04-15T00:41:44;5.63;;;2.30;;
9188;SDS011;34313;50.780;6.084;2023-04-15T00:44:10;4.77;;;2.40;;
9188;SDS011;34313;50.780;6.084;2023-04-15T00:46:35;8.10;;;2.67;;
9188;SDS011;34313;50.780;6.084;2023-04-15T00:49:03;3.60;;;2.20;;
9188;SDS011;34313;50.780;6.084;2023-04-15T00:51:30;5.83;;;2.60;;
9188;SDS011;34313;50.780;6.084;2023-04-15T00:53:57;3.33;;;2.33;;
9188;SDS011;34313;50.780;6.084;2023-04-15T00:56:24;4.90;;;2.67;;
9188;SDS011;34313;50.780;6.084;2023-04-15T00:58:51;4.93;;;1.77;;
9188;SDS011;34313;50.780;6.084;2023-04-15T01:01:19;5.50;;;2.27;;
9188;SDS011;34313;50.780;6.084;2023-04-15T01:03:46;5.07;;;2.07;;
9188;SDS011;34313;50.780;6.084;2023-04-15T01:06:13;3.83;;;2.20;;
9188;SDS011;34313;50.780;6.084;2023-04-15T01:08:38;2.90;;;2.00;;
9188;SDS011;34313;50.780;6.084;2023-04-15T01:11:04;5.57;;;2.20;;
9188;SDS011;34313;50.780;6.084;2023-04-15T01:13:31;5.07;;;2.40;;
9188;SDS011;34313;50.780;6.084;2023-04-15T01:15:58;6.03;;;2.53;;
9188;SDS011;34313;50.780;6.084;2023-04-15T01:18:24;6.40;;;2.43;;
9188;SDS011;34313;50.780;6.084;2023-04-15T01:20:51;3.93;;;2.20;;
9188;SDS011;34313;50.780;6.084;2023-04-15T01:23:16;5.60;;;2.53;;
9188;SDS011;34313;50.780;6.084;2023-04-15T01:25:42;2.40;;;2.03;;
9188;SDS011;34313;50.780;6.084;2023-04-15T01:28:08;7.90;;;2.47;;
9188;SDS011;34313;50.780;6.084;2023-04-15T01:30:35;4.80;;;2.40;;
9188;SDS011;34313;50.780;6.084;2023-04-15T01:33:00;4.40;;;2.00;;
9188;SDS011;34313;50.780;6.084;2023-04-15T01:35:26;4.50;;;2.30;;
9188;SDS011;34313;50.780;6.084;2023-04-15T01:37:52;3.57;;;1.70;;
9188;SDS011;34313;50.780;6.084;2023-04-15T01:40:23;3.70;;;2.00;;
9188;SDS011;34313;50.780;6.084;2023-04-15T01:42:48;4.77;;;2.03;;
9188;SDS011;34313;50.780;6.084;2023-04-15T01:45:14;3.37;;;2.33;;
9188;SDS011;34313;50.780;6.084;2023-04-15T01:47:39;9.63;;;1.93;;
9188;SDS011;34313;50.780;6.084;2023-04-15T01:50:04;3.10;;;1.93;;
9188;SDS011;34313;50.780;6.084;2023-04-15T01:52:30;6.40;;;2.17;;
9188;SDS011;34313;50.780;6.084;2023-04-15T01:54:56;4.20;;;2.10;;
9188;SDS011;34313;50.780;6.084;2023-04-15T01:57:21;4.10;;;1.87;;
9188;SDS011;34313;50.780;6.084;2023-04-15T01:59:46;3.87;;;1.80;;
9188;SDS011;34313;50.780;6.084;2023-04-15T02:02:11;3.60;;;1.97;;
9188;SDS011;34313;50.780;6.084;2023-04-15T02:04:37;5.27;;;2.20;;
9188;SDS011;34313;50.780;6.084;2023-04-15T02:07:02;6.87;;;2.47;;
9188;SDS011;34313;50.780;6.084;2023-04-15T02:09:27;8.13;;;3.17;;
9188;SDS011;34313;50.780;6.084;2023-04-15T02:11:53;16.03;;;3.70;;
9188;SDS011;34313;50.780;6.084;2023-04-15T02:14:18;4.83;;;2.80;;
9188;SDS011;34313;50.780;6.084;2023-04-15T02:16:44;2.70;;;1.90;;
9188;SDS011;34313;50.780;6.084;2023-04-15T02:19:09;6.10;;;1.77;;
9188;SDS011;34313;50.780;6.084;2023-04-15T02:21:34;6.83;;;2.80;;
9188;SDS011;34313;50.780;6.084;2023-04-15T02:24:00;3.57;;;2.20;;
9188;SDS011;34313;50.780;6.084;2023-04-15T02:26:26;5.60;;;2.37;;
9188;SDS011;34313;50.780;6.084;2023-04-15T02:28:52;3.60;;;2.13;;
9188;SDS011;34313;50.780;6.084;2023-04-15T02:31:17;5.17;;;2.03;;
9188;SDS011;34313;50.780;6.084;2023-04-15T02:33:42;2.80;;;1.80;;
9188;SDS011;34313;50.780;6.084;2023-04-15T02:36:08;4.50;;;2.00;;
9188;SDS011;34313;50.780;6.084;2023-04-15T02:38:35;10.23;;;1.83;;
9188;SDS011;34313;50.780;6.084;2023-04-15T02:41:02;4.97;;;1.83;;
9188;SDS011;34313;50.780;6.084;2023-04-15T02:43:27;5.83;;;1.90;;
9188;SDS011;34313;50.780;6.084;2023-04-15T02:45:52;2.13;;;1.70;;
9188;SDS011;34313;50.780;6.084;2023-04-15T02:48:17;2.23;;;1.47;;
9188;SDS011;34313;50.780;6.084;2023-04-15T02:50:44;4.03;;;1.80;;
9188;SDS011;34313;50.780;6.084;2023-04-15T02:53:10;5.57;;;2.10;;
9188;SDS011;34313;50.780;6.084;2023-04-15T02:55:37;3.67;;;1.70;;
9188;SDS011;34313;50.780;6.084;2023-04-15T02:58:02;5.60;;;1.60;;
9188;SDS011;34313;50.780;6.084;2023-04-15T03:00:28;4.93;;;1.60;;
9188;SDS011;34313;50.780;6.084;2023-04-15T03:03:03;3.93;;;1.53;;
9188;SDS011;34313;50.780;6.084;2023-04-15T03:05:29;3.63;;;1.60;;
9188;SDS011;34313;50.780;6.084;2023-04-15T03:07:55;2.23;;;1.30;;
9188;SDS011;34313;50.780;6.084;2023-04-15T03:10:20;2.77;;;1.80;;
9188;SDS011;34313;50.780;6.084;2023-04-15T03:12:46;5.10;;;1.90;;
9188;SDS011;34313;50.780;6.084;2023-04-15T03:15:12;4.90;;;1.30;;
9188;SDS011;34313;50.780;6.084;2023-04-15T03:17:37;3.43;;;1.90;;
9188;SDS011;34313;50.780;6.084;2023-04-15T03:20:03;5.83;;;1.80;;
9188;SDS011;34313;50.780;6.084;2023-04-15T03:22:32;3.87;;;1.67;;
9188;SDS011;34313;50.780;6.084;2023-04-15T03:24:58;2.10;;;1.60;;
9188;SDS011;34313;50.780;6.084;2023-04-15T03:27:23;2.07;;;1.57;;
9188;SDS011;34313;50.780;6.084;2023-04-15T03:29:49;12.63;;;2.03;;
9188;SDS011;34313;50.780;6.084;2023-04-15T03:32:14;2.53;;;1.80;;
9188;SDS011;34313;50.780;6.084;2023-04-15T03:34:40;5.33;;;1.90;;
9188;SDS011;34313;50.780;6.084;2023-04-15T03:37:06;4.00;;;1.73;;
9188;SDS011;34313;50.780;6.084;2023-04-15T03:39:32;5.47;;;1.57;;
9188;SDS011;34313;50.780;6.084;2023-04-15T03:41:58;4.60;;;1.87;;
9188;SDS011;34313;50.780;6.084;2023-04-15T03:44:24;5.00;;;1.90;;
9188;SDS011;34313;50.780;6.084;2023-04-15T03:46:50;4.03;;;1.80;;
9188;SDS011;34313;50.780;6.084;2023-04-15T03:49:15;3.87;;;1.70;;
9188;SDS011;34313;50.780;6.084;2023-04-15T03:51:41;4.77;;;1.90;;
9188;SDS011;34313;50.780;6.084;2023-04-15T03:54:06;3.70;;;1.77;;
9188;SDS011;34313;50.780;6.084;2023-04-15T03:56:31;2.30;;;1.80;;
9188;SDS011;34313;50.780;6.084;2023-04-15T03:58:57;4.50;;;1.50;;
9188;SDS011;34313;50.780;6.084;2023-04-15T04:01:22;4.20;;;2.13;;
9188;SDS011;34313;50.780;6.084;2023-04-15T04:03:47;3.70;;;2.10;;
9188;SDS011;34313;50.780;6.084;2023-04-15T04:06:13;3.30;;;1.60;;
9188;SDS011;34313;50.780;6.084;2023-04-15T04:08:39;7.53;;;1.90;;
9188;SDS011;34313;50.780;6.084;2023-04-15T04:11:05;3.17;;;1.87;;
9188;SDS011;34313;50.780;6.084;2023-04-15T04:13:30;2.93;;;1.47;;
9188;SDS011;34313;50.780;6.084;2023-04-15T04:15:56;5.33;;;2.63;;
9188;SDS011;34313;50.780;6.084;2023-04-15T04:18:21;2.63;;;2.00;;
9188;SDS011;34313;50.780;6.084;2023-04-15T04:20:46;4.60;;;2.20;;
9188;SDS011;34313;50.780;6.084;2023-04-15T04:23:12;6.83;;;2.00;;
9188;SDS011;34313;50.780;6.084;2023-04-15T04:25:37;3.97;;;2.23;;
9188;SDS011;34313;50.780;6.084;2023-04-15T04:28:03;6.53;;;1.90;;
9188;SDS011;34313;50.780;6.084;2023-04-15T04:30:28;3.77;;;1.70;;
9188;SDS011;34313;50.780;6.084;2023-04-15T04:32:54;7.30;;;2.10;;
9188;SDS011;34313;50.780;6.084;2023-04-15T04:35:19;4.87;;;2.13;;
9188;SDS011;34313;50.780;6.084;2023-04-15T04:37:45;3.47;;;2.23;;
9188;SDS011;34313;50.780;6.084;2023-04-15T04:40:11;4.70;;;2.33;;
9188;SDS011;34313;50.780;6.084;2023-04-15T04:42:37;4.50;;;2.37;;
9188;SDS011;34313;50.780;6.084;2023-04-15T04:45:02;4.33;;;1.83;;
9188;SDS011;34313;50.780;6.084;2023-04-15T04:47:27;5.00;;;2.10;;
9188;SDS011;34313;50.780;6.084;2023-04-15T04:49:54;3.27;;;2.07;;
9188;SDS011;34313;50.780;6.084;2023-04-15T04:52:19;6.93;;;1.67;;
9188;SDS011;34313;50.780;6.084;2023-04-15T04:54:44;2.90;;;1.70;;
9188;SDS011;34313;50.780;6.084;2023-04-15T04:57:10;4.97;;;2.27;;
9188;SDS011;34313;50.780;6.084;2023-04-15T04:59:37;5.53;;;2.40;;
9188;SDS011;34313;50.780;6.084;2023-04-15T05:02:02;3.80;;;2.10;;
9188;SDS011;34313;50.780;6.084;2023-04-15T05:04:28;5.43;;;2.00;;
9188;SDS011;34313;50.780;6.084;2023-04-15T05:06:53;4.07;;;2.37;;
9188;SDS011;34313;50.780;6.084;2023-04-15T05:09:18;5.97;;;1.87;;
9188;SDS011;34313;50.780;6.084;2023-04-15T05:11:44;3.90;;;2.17;;
9188;SDS011;34313;50.780;6.084;2023-04-15T05:14:09;3.60;;;2.07;;
9188;SDS011;34313;50.780;6.084;2023-04-15T05:16:34;2.60;;;1.87;;
9188;SDS011;34313;50.780;6.084;2023-04-15T05:18:59;3.33;;;2.07;;
9188;SDS011;34313;50.780;6.084;2023-04-15T05:21:25;3.93;;;2.20;;
9188;SDS011;34313;50.780;6.084;2023-04-15T05:23:51;6.00;;;2.20;;
9188;SDS011;34313;50.780;6.084;2023-04-15T05:26:16;4.20;;;2.20;;
9188;SDS011;34313;50.780;6.084;2023-04-15T05:28:42;5.10;;;1.87;;
9188;SDS011;34313;50.780;6.084;2023-04-15T05:31:07;3.97;;;2.10;;
9188;SDS011;34313;50.780;6.084;2023-04-15T05:33:32;7.17;;;2.00;;
9188;SDS011;34313;50.780;6.084;2023-04-15T05:35:58;2.80;;;1.87;;
9188;SDS011;34313;50.780;6.084;2023-04-15T05:38:23;3.00;;;1.90;;
9188;SDS011;34313;50.780;6.084;2023-04-15T05:40:49;4.17;;;2.33;;
9188;SDS011;34313;50.780;6.084;2023-04-15T05:43:14;4.73;;;2.23;;
9188;SDS011;34313;50.780;6.084;2023-04-15T05:45:40;2.77;;;1.70;;
9188;SDS011;34313;50.780;6.084;2023-04-15T05:48:05;6.33;;;2.13;;
9188;SDS011;34313;50.780;6.084;2023-04-15T05:50:31;5.57;;;2.00;;
9188;SDS011;34313;50.780;6.084;2023-04-15T05:52:56;5.90;;;2.73;;
9188;SDS011;34313;50.780;6.084;2023-04-15T05:55:21;4.00;;;3.10;;
9188;SDS011;34313;50.780;6.084;2023-04-15T05:57:47;5.20;;;2.80;;
9188;SDS011;34313;50.780;6.084;2023-04-15T06:00:12;3.57;;;2.60;;
9188;SDS011;34313;50.780;6.084;2023-04-15T06:02:38;4.57;;;2.60;;
9188;SDS011;34313;50.780;6.084;2023-04-15T06:05:03;5.10;;;2.87;;
9188;SDS011;34313;50.780;6.084;2023-04-15T06:07:34;4.67;;;2.60;;
9188;SDS011;34313;50.780;6.084;2023-04-15T06:10:01;3.53;;;2.27;;
9188;SDS011;34313;50.780;6.084;2023-04-15T06:12:27;3.83;;;2.30;;
9188;SDS011;34313;50.780;6.084;2023-04-15T06:14:52;5.53;;;2.80;;
9188;SDS011;34313;50.780;6.084;2023-04-15T06:17:17;7.53;;;2.80;;
9188;SDS011;34313;50.780;6.084;2023-04-15T06:19:43;5.67;;;2.60;;
9188;SDS011;34313;50.780;6.084;2023-04-15T06:22:08;4.70;;;2.93;;
9188;SDS011;34313;50.780;6.084;2023-04-15T06:24:33;5.30;;;2.73;;
9188;SDS011;34313;50.780;6.084;2023-04-15T06:27:00;4.70;;;2.87;;
9188;SDS011;34313;50.780;6.084;2023-04-15T06:29:26;4.13;;;2.30;;
9188;SDS011;34313;50.780;6.084;2023-04-15T06:31:51;4.70;;;2.33;;
9188;SDS011;34313;50.780;6.084;2023-04-15T06:34:17;4.20;;;2.43;;
9188;SDS011;34313;50.780;6.084;2023-04-15T06:36:42;7.40;;;3.77;;
9188;SDS011;34313;50.780;6.084;2023-04-15T06:39:07;14.03;;;6.70;;
9188;SDS011;34313;50.780;6.084;2023-04-15T06:41:32;13.70;;;6.90;;
9188;SDS011;34313;50.780;6.084;2023-04-15T06:43:58;12.93;;;5.80;;
9188;SDS011;34313;50.780;6.084;2023-04-15T06:46:23;14.27;;;6.93;;
9188;SDS011;34313;50.780;6.084;2023-04-15T06:48:49;15.70;;;5.80;;
9188;SDS011;34313;50.780;6.084;2023-04-15T06:51:14;16.43;;;5.70;;
9188;SDS011;34313;50.780;6.084;2023-04-15T06:53:39;8.37;;;4.33;;
9188;SDS011;34313;50.780;6.084;2023-04-15T06:56:07;6.73;;;3.87;;
9188;SDS011;34313;50.780;6.084;2023-04-15T06:58:33;7.00;;;4.10;;
9188;SDS011;34313;50.780;6.084;2023-04-15T07:00:59;15.67;;;4.43;;
9188;SDS011;34313;50.780;6.084;2023-04-15T07:03:24;8.57;;;4.57;;
9188;SDS011;34313;50.780;6.084;2023-04-15T07:05:50;5.77;;;4.00;;
9188;SDS011;34313;50.780;6.084;2023-04-15T07:08:15;6.00;;;3.90;;
9188;SDS011;34313;50.780;6.084;2023-04-15T07:10:40;6.97;;;3.97;;
9188;SDS011;34313;50.780;6.084;2023-04-15T07:13:05;6.33;;;3.60;;
9188;SDS011;34313;50.780;6.084;2023-04-15T07:15:32;7.07;;;3.63;;
9188;SDS011;34313;50.780;6.084;2023-04-15T07:17:58;6.77;;;3.83;;
9188;SDS011;34313;50.780;6.084;2023-04-15T07:20:23;10.33;;;4.23;;
9188;SDS011;34313;50.780;6.084;2023-04-15T07:22:49;8.03;;;4.40;;
9188;SDS011;34313;50.780;6.084;2023-04-15T07:25:14;5.40;;;3.47;;
9188;SDS011;34313;50.780;6.084;2023-04-15T07:27:39;8.03;;;4.23;;
9188;SDS011;34313;50.780;6.084;2023-04-15T07:30:04;7.80;;;4.50;;
9188;SDS011;34313;50.780;6.084;2023-04-15T07:32:30;6.57;;;3.80;;
9188;SDS011;34313;50.780;6.084;2023-04-15T07:34:56;7.03;;;3.67;;
9188;SDS011;34313;50.780;6.084;2023-04-15T07:37:21;8.27;;;4.53;;
9188;SDS011;34313;50.780;6.084;2023-04-15T07:39:47;8.27;;;3.97;;
9188;SDS011;34313;50.780;6.084;2023-04-15T07:42:12;6.10;;;3.90;;
9188;SDS011;34313;50.780;6.084;2023-04-15T07:44:39;7.23;;;4.20;;
9188;SDS011;34313;50.780;6.084;2023-04-15T07:47:04;8.20;;;4.13;;
9188;SDS011;34313;50.780;6.084;2023-04-15T07:49:30;13.40;;;4.10;;
9188;SDS011;34313;50.780;6.084;2023-04-15T07:51:55;7.83;;;3.70;;
9188;SDS011;34313;50.780;6.084;2023-04-15T07:54:21;8.80;;;4.50;;
9188;SDS011;34313;50.780;6.084;2023-04-15T07:56:47;6.40;;;4.30;;
9188;SDS011;34313;50.780;6.084;2023-04-15T07:59:12;7.47;;;3.80;;
9188;SDS011;34313;50.780;6.084;2023-04-15T08:01:39;9.20;;;4.30;;
9188;SDS011;34313;50.780;6.084;2023-04-15T08:04:04;7.30;;;4.13;;
9188;SDS011;34313;50.780;6.084;2023-04-15T08:06:29;9.83;;;3.93;;
9188;SDS011;34313;50.780;6.084;2023-04-15T08:08:55;11.70;;;3.70;;
9188;SDS011;34313;50.780;6.084;2023-04-15T08:11:20;8.63;;;4.50;;
9188;SDS011;34313;50.780;6.084;2023-04-15T08:13:47;12.20;;;4.73;;
9188;SDS011;34313;50.780;6.084;2023-04-15T08:18:40;13.70;;;5.03;;
9188;SDS011;34313;50.780;6.084;2023-04-15T08:21:05;9.02;;;5.00;;
9188;SDS011;34313;50.780;6.084;2023-04-15T08:23:31;11.20;;;5.33;;
9188;SDS011;34313;50.780;6.084;2023-04-15T08:25:57;7.30;;;4.90;;
9188;SDS011;34313;50.780;6.084;2023-04-15T08:28:22;12.80;;;5.20;;
9188;SDS011;34313;50.780;6.084;2023-04-15T08:30:48;7.40;;;5.50;;
9188;SDS011;34313;50.780;6.084;2023-04-15T08:33:13;10.90;;;6.10;;
9188;SDS011;34313;50.780;6.084;2023-04-15T08:35:40;14.87;;;6.33;;
9188;SDS011;34313;50.780;6.084;2023-04-15T08:38:05;8.73;;;6.50;;
9188;SDS011;34313;50.780;6.084;2023-04-15T08:40:39;8.40;;;6.20;;
9188;SDS011;34313;50.780;6.084;2023-04-15T08:43:07;12.30;;;7.20;;
9188;SDS011;34313;50.780;6.084;2023-04-15T08:45:34;7.83;;;5.73;;
9188;SDS011;34313;50.780;6.084;2023-04-15T08:48:03;7.67;;;6.10;;
9188;SDS011;34313;50.780;6.084;2023-04-15T08:50:30;10.63;;;6.40;;
9188;SDS011;34313;50.780;6.084;2023-04-15T08:52:57;7.40;;;6.47;;
9188;SDS011;34313;50.780;6.084;2023-04-15T08:55:25;9.27;;;5.97;;
9188;SDS011;34313;50.780;6.084;2023-04-15T08:57:54;10.70;;;6.07;;
9188;SDS011;34313;50.780;6.084;2023-04-15T09:00:20;7.50;;;5.93;;
9188;SDS011;34313;50.780;6.084;2023-04-15T09:02:47;6.60;;;6.00;;
9188;SDS011;34313;50.780;6.084;2023-04-15T09:05:12;7.60;;;6.40;;
9188;SDS011;34313;50.780;6.084;2023-04-15T09:07:38;9.27;;;7.17;;
9188;SDS011;34313;50.780;6.084;2023-04-15T09:10:03;8.90;;;7.30;;
9188;SDS011;34313;50.780;6.084;2023-04-15T09:12:29;14.50;;;7.50;;
9188;SDS011;34313;50.780;6.084;2023-04-15T09:14:55;13.13;;;6.90;;
9188;SDS011;34313;50.780;6.084;2023-04-15T09:17:21;9.43;;;7.30;;
9188;SDS011;34313;50.780;6.084;2023-04-15T09:19:48;9.03;;;7.80;;
9188;SDS011;34313;50.780;6.084;2023-04-15T09:22:14;9.87;;;6.90;;
9188;SDS011;34313;50.780;6.084;2023-04-15T09:24:39;13.33;;;8.13;;
9188;SDS011;34313;50.780;6.084;2023-04-15T09:27:06;11.80;;;8.43;;
9188;SDS011;34313;50.780;6.084;2023-04-15T09:29:31;11.57;;;8.87;;
9188;SDS011;34313;50.780;6.084;2023-04-15T09:32:08;13.20;;;6.90;;
9188;SDS011;34313;50.780;6.084;2023-04-15T09:34:37;7.70;;;5.97;;
9188;SDS011;34313;50.780;6.084;2023-04-15T09:37:02;7.80;;;5.20;;
9188;SDS011;34313;50.780;6.084;2023-04-15T09:39:43;7.20;;;5.10;;
9188;SDS011;34313;50.780;6.084;2023-04-15T09:42:16;6.37;;;4.23;;
9188;SDS011;34313;50.780;6.084;2023-04-15T09:44:48;6.03;;;4.50;;
9188;SDS011;34313;50.780;6.084;2023-04-15T09:47:26;5.50;;;4.30;;
9188;SDS011;34313;50.780;6.084;2023-04-15T09:49:55;5.10;;;4.00;;
9188;SDS011;34313;50.780;6.084;2023-04-15T09:52:21;7.47;;;4.53;;
9188;SDS011;34313;50.780;6.084;2023-04-15T09:54:46;8.83;;;4.90;;
9188;SDS011;34313;50.780;6.084;2023-04-15T09:57:12;7.67;;;5.37;;
9188;SDS011;34313;50.780;6.084;2023-04-15T09:59:37;10.47;;;5.67;;
9188;SDS011;34313;50.780;6.084;2023-04-15T10:02:05;8.00;;;5.33;;
9188;SDS011;34313;50.780;6.084;2023-04-15T10:04:38;5.97;;;4.80;;
9188;SDS011;34313;50.780;6.084;2023-04-15T10:07:05;7.13;;;4.90;;
9188;SDS011;34313;50.780;6.084;2023-04-15T10:09:34;6.00;;;4.80;;
9188;SDS011;34313;50.780;6.084;2023-04-15T10:12:01;10.60;;;5.77;;
9188;SDS011;34313;50.780;6.084;2023-04-15T10:14:29;7.60;;;5.67;;
9188;SDS011;34313;50.780;6.084;2023-04-15T10:16:56;6.20;;;5.53;;
9188;SDS011;34313;50.780;6.084;2023-04-15T10:19:25;8.67;;;5.20;;
9188;SDS011;34313;50.780;6.084;2023-04-15T10:21:52;11.87;;;6.10;;
9188;SDS011;34313;50.780;6.084;2023-04-15T10:24:19;7.80;;;5.57;;
9188;SDS011;34313;50.780;6.084;2023-04-15T10:26:45;10.27;;;6.27;;
9188;SDS011;34313;50.780;6.084;2023-04-15T10:29:11;7.30;;;6.00;;
9188;SDS011;34313;50.780;6.084;2023-04-15T10:31:36;7.60;;;5.73;;
9188;SDS011;34313;50.780;6.084;2023-04-15T10:34:03;9.70;;;5.47;;
9188;SDS011;34313;50.780;6.084;2023-04-15T10:36:30;8.63;;;5.93;;
9188;SDS011;34313;50.780;6.084;2023-04-15T10:38:56;5.90;;;4.90;;
9188;SDS011;34313;50.780;6.084;2023-04-15T10:41:22;11.23;;;4.87;;
9188;SDS011;34313;50.780;6.084;2023-04-15T10:43:53;8.90;;;5.70;;
9188;SDS011;34313;50.780;6.084;2023-04-15T10:46:33;6.70;;;5.67;;
9188;SDS011;34313;50.780;6.084;2023-04-15T10:49:05;7.63;;;5.17;;
9188;SDS011;34313;50.780;6.084;2023-04-15T10:51:42;6.07;;;4.20;;
9188;SDS011;34313;50.780;6.084;2023-04-15T10:54:12;5.83;;;4.50;;
9188;SDS011;34313;50.780;6.084;2023-04-15T10:56:40;5.63;;;5.03;;
9188;SDS011;34313;50.780;6.084;2023-04-15T10:59:08;6.93;;;4.27;;
9188;SDS011;34313;50.780;6.084;2023-04-15T11:10:50;7.07;;;4.60;;
9188;SDS011;34313;50.780;6.084;2023-04-15T11:12:50;6.97;;;4.33;;
9188;SDS011;34313;50.780;6.084;2023-04-15T11:18:19;5.00;;;3.40;;
9188;SDS011;34313;50.780;6.084;2023-04-15T11:26:08;4.10;;;2.87;;
9188;SDS011;34313;50.780;6.084;2023-04-15T11:28:36;5.03;;;3.63;;
9188;SDS011;34313;50.780;6.084;2023-04-15T11:31:06;5.17;;;4.10;;
9188;SDS011;34313;50.780;6.084;2023-04-15T11:33:34;5.90;;;3.80;;
9188;SDS011;34313;50.780;6.084;2023-04-15T11:36:00;4.43;;;3.67;;
9188;SDS011;34313;50.780;6.084;2023-04-15T11:38:25;4.03;;;3.63;;
9188;SDS011;34313;50.780;6.084;2023-04-15T11:40:51;3.27;;;2.90;;
9188;SDS011;34313;50.780;6.084;2023-04-15T11:43:20;3.47;;;2.50;;
9188;SDS011;34313;50.780;6.084;2023-04-15T11:45:53;2.60;;;2.40;;
9188;SDS011;34313;50.780;6.084;2023-04-15T11:48:21;2.40;;;2.20;;
9188;SDS011;34313;50.780;6.084;2023-04-15T11:50:52;3.53;;;2.80;;
9188;SDS011;34313;50.780;6.084;2023-04-15T11:53:22;2.80;;;2.43;;
9188;SDS011;34313;50.780;6.084;2023-04-15T11:55:48;5.87;;;1.90;;
9188;SDS011;34313;50.780;6.084;2023-04-15T11:58:16;1.90;;;1.80;;
9188;SDS011;34313;50.780;6.084;2023-04-15T12:00:47;5.23;;;2.87;;
9188;SDS011;34313;50.780;6.084;2023-04-15T12:03:20;3.30;;;2.37;;
9188;SDS011;34313;50.780;6.084;2023-04-15T12:11:26;3.00;;;2.67;;
9188;SDS011;34313;50.780;6.084;2023-04-15T12:16:43;3.90;;;3.23;;
9188;SDS011;34313;50.780;6.084;2023-04-15T12:19:11;3.63;;;2.83;;
9188;SDS011;34313;50.780;6.084;2023-04-15T12:21:40;3.53;;;2.50;;
9188;SDS011;34313;50.780;6.084;2023-04-15T12:24:08;8.23;;;6.23;;
9188;SDS011;34313;50.780;6.084;2023-04-15T12:26:45;11.80;;;7.30;;
9188;SDS011;34313;50.780;6.084;2023-04-15T12:29:13;8.13;;;5.93;;
9188;SDS011;34313;50.780;6.084;2023-04-15T12:31:50;5.20;;;3.70;;
9188;SDS011;34313;50.780;6.084;2023-04-15T12:34:16;6.50;;;4.03;;
9188;SDS011;34313;50.780;6.084;2023-04-15T12:36:43;5.60;;;4.30;;
9188;SDS011;34313;50.780;6.084;2023-04-15T12:39:08;4.40;;;3.83;;
9188;SDS011;34313;50.780;6.084;2023-04-15T12:41:34;4.13;;;3.13;;
9188;SDS011;34313;50.780;6.084;2023-04-15T12:43:59;5.20;;;3.50;;
9188;SDS011;34313;50.780;6.084;2023-04-15T12:46:25;5.27;;;3.30;;
9188;SDS011;34313;50.780;6.084;2023-04-15T12:48:51;3.90;;;3.40;;
9188;SDS011;34313;50.780;6.084;2023-04-15T12:51:17;3.50;;;3.20;;
9188;SDS011;34313;50.780;6.084;2023-04-15T12:53:42;3.90;;;3.30;;
9188;SDS011;34313;50.780;6.084;2023-04-15T12:56:08;3.40;;;2.83;;
9188;SDS011;34313;50.780;6.084;2023-04-15T12:58:33;4.17;;;3.30;;
9188;SDS011;34313;50.780;6.084;2023-04-15T13:00:58;5.97;;;3.57;;
9188;SDS011;34313;50.780;6.084;2023-04-15T13:03:24;4.40;;;3.53;;
9188;SDS011;34313;50.780;6.084;2023-04-15T13:05:49;4.40;;;3.20;;
9188;SDS011;34313;50.780;6.084;2023-04-15T13:08:15;3.40;;;3.10;;
9188;SDS011;34313;50.780;6.084;2023-04-15T13:10:40;3.27;;;2.93;;
9188;SDS011;34313;50.780;6.084;2023-04-15T13:13:07;3.37;;;2.93;;
9188;SDS011;34313;50.780;6.084;2023-04-15T13:15:32;3.20;;;2.90;;
9188;SDS011;34313;50.780;6.084;2023-04-15T13:17:58;4.20;;;3.80;;
9188;SDS011;34313;50.780;6.084;2023-04-15T13:20:23;4.97;;;3.70;;
9188;SDS011;34313;50.780;6.084;2023-04-15T13:22:51;4.73;;;2.80;;
9188;SDS011;34313;50.780;6.084;2023-04-15T13:25:17;3.50;;;3.20;;
9188;SDS011;34313;50.780;6.084;2023-04-15T13:27:42;6.10;;;2.90;;
9188;SDS011;34313;50.780;6.084;2023-04-15T13:30:08;3.53;;;2.90;;
9188;SDS011;34313;50.780;6.084;2023-04-15T13:32:33;3.90;;;2.63;;
9188;SDS011;34313;50.780;6.084;2023-04-15T13:34:59;5.00;;;2.70;;
9188;SDS011;34313;50.780;6.084;2023-04-15T13:37:27;3.43;;;2.90;;
9188;SDS011;34313;50.780;6.084;2023-04-15T13:39:53;3.30;;;2.40;;
9188;SDS011;34313;50.780;6.084;2023-04-15T13:42:19;4.33;;;3.27;;
9188;SDS011;34313;50.780;6.084;2023-04-15T13:44:45;3.93;;;3.10;;
9188;SDS011;34313;50.780;6.084;2023-04-15T13:47:11;3.47;;;3.07;;
9188;SDS011;34313;50.780;6.084;2023-04-15T13:49:37;4.67;;;3.10;;
9188;SDS011;34313;50.780;6.084;2023-04-15T13:52:02;4.70;;;3.30;;
9188;SDS011;34313;50.780;6.084;2023-04-15T13:54:27;3.60;;;3.30;;
9188;SDS011;34313;50.780;6.084;2023-04-15T13:56:53;4.87;;;2.90;;
9188;SDS011;34313;50.780;6.084;2023-04-15T13:59:21;4.53;;;2.97;;
9188;SDS011;34313;50.780;6.084;2023-04-15T14:01:46;6.83;;;2.90;;
9188;SDS011;34313;50.780;6.084;2023-04-15T14:04:12;3.10;;;2.50;;
9188;SDS011;34313;50.780;6.084;2023-04-15T14:06:37;3.87;;;3.13;;
9188;SDS011;34313;50.780;6.084;2023-04-15T14:09:02;3.10;;;2.80;;
9188;SDS011;34313;50.780;6.084;2023-04-15T14:11:28;3.20;;;2.57;;
9188;SDS011;34313;50.780;6.084;2023-04-15T14:13:53;3.23;;;2.93;;
9188;SDS011;34313;50.780;6.084;2023-04-15T14:16:19;6.63;;;2.60;;
9188;SDS011;34313;50.780;6.084;2023-04-15T14:18:44;3.83;;;3.30;;
9188;SDS011;34313;50.780;6.084;2023-04-15T14:21:10;3.70;;;2.57;;
9188;SDS011;34313;50.780;6.084;2023-04-15T14:23:35;5.60;;;3.33;;
9188;SDS011;34313;50.780;6.084;2023-04-15T14:26:00;4.33;;;3.33;;
9188;SDS011;34313;50.780;6.084;2023-04-15T14:28:26;3.40;;;2.60;;
9188;SDS011;34313;50.780;6.084;2023-04-15T14:30:51;7.30;;;3.53;;
9188;SDS011;34313;50.780;6.084;2023-04-15T14:33:17;4.60;;;2.70;;
9188;SDS011;34313;50.780;6.084;2023-04-15T14:35:43;3.67;;;3.07;;
9188;SDS011;34313;50.780;6.084;2023-04-15T14:38:08;4.50;;;2.90;;
9188;SDS011;34313;50.780;6.084;2023-04-15T14:40:35;2.83;;;2.63;;
9188;SDS011;34313;50.780;6.084;2023-04-15T14:43:00;4.50;;;2.63;;
9188;SDS011;34313;50.780;6.084;2023-04-15T14:45:26;3.30;;;2.47;;
9188;SDS011;34313;50.780;6.084;2023-04-15T14:47:51;3.30;;;2.47;;
9188;SDS011;34313;50.780;6.084;2023-04-15T14:50:17;3.87;;;2.70;;
9188;SDS011;34313;50.780;6.084;2023-04-15T14:52:43;3.17;;;2.27;;
9188;SDS011;34313;50.780;6.084;2023-04-15T14:55:09;3.33;;;2.47;;
9188;SDS011;34313;50.780;6.084;2023-04-15T14:57:36;2.90;;;2.57;;
9188;SDS011;34313;50.780;6.084;2023-04-15T15:00:02;4.93;;;2.57;;
9188;SDS011;34313;50.780;6.084;2023-04-15T15:02:28;5.03;;;2.57;;
9188;SDS011;34313;50.780;6.084;2023-04-15T15:04:53;2.80;;;2.30;;
9188;SDS011;34313;50.780;6.084;2023-04-15T15:07:19;3.27;;;2.60;;
9188;SDS011;34313;50.780;6.084;2023-04-15T15:09:45;2.47;;;2.27;;
9188;SDS011;34313;50.780;6.084;2023-04-15T15:12:10;2.37;;;2.00;;
9188;SDS011;34313;50.780;6.084;2023-04-15T15:14:36;2.80;;;2.40;;
9188;SDS011;34313;50.780;6.084;2023-04-15T15:17:01;3.10;;;2.47;;
9188;SDS011;34313;50.780;6.084;2023-04-15T15:19:26;3.50;;;2.53;;
9188;SDS011;34313;50.780;6.084;2023-04-15T15:21:51;3.47;;;2.63;;